createdAt,value
2023-02-21T00:00:16.695Z,99.99
2023-02-21T00:01:16.696Z,99.99
2023-02-21T00:02:16.741Z,99.99
2023-02-21T00:03:16.655Z,99.99
2023-02-21T00:04:16.643Z,99.99
2023-02-21T00:05:16.653Z,99.99
2023-02-21T00:06:16.644Z,99.99
2023-02-21T00:07:16.613Z,99.99
2023-02-21T00:08:16.585Z,99.99
2023-02-21T00:09:16.571Z,99.99
2023-02-21T00:10:16.560Z,99.99
2023-02-21T00:11:16.753Z,99.99
2023-02-21T00:12:16.522Z,99.99
2023-02-21T00:13:16.522Z,99.99
2023-02-21T00:14:16.507Z,99.99
2023-02-21T00:15:16.508Z,99.99
2023-02-21T00:16:16.511Z,99.99
2023-02-21T00:17:16.536Z,99.99
2023-02-21T00:18:16.449Z,99.99
2023-02-21T00:19:16.467Z,99.99
2023-02-21T00:20:18.367Z,99.99
2023-02-21T00:21:16.463Z,99.99
2023-02-21T00:22:16.393Z,99.99
2023-02-21T00:23:16.424Z,99.99
2023-02-21T00:24:16.381Z,99.99
2023-02-21T00:25:16.375Z,99.99
2023-02-21T00:26:16.356Z,99.99
2023-02-21T00:27:16.342Z,99.99
2023-02-21T00:28:16.334Z,99.99
2023-02-21T00:29:16.332Z,99.99
2023-02-21T00:30:16.351Z,99.99
2023-02-21T00:31:16.644Z,99.99
2023-02-21T00:32:16.297Z,99.99
2023-02-21T00:33:16.293Z,99.99
2023-02-21T00:34:16.259Z,99.99
2023-02-21T00:35:16.271Z,99.99
2023-02-21T00:36:16.219Z,99.99
2023-02-21T00:37:16.224Z,99.99
2023-02-21T00:38:16.204Z,99.99
2023-02-21T00:39:16.190Z,99.99
2023-02-21T00:40:16.192Z,99.99
2023-02-21T00:41:16.438Z,99.99
2023-02-21T00:42:16.153Z,99.99
2023-02-21T00:43:16.130Z,99.99
2023-02-21T00:44:16.112Z,99.99
2023-02-21T00:45:16.098Z,99.99
2023-02-21T00:46:16.154Z,99.99
2023-02-21T00:47:16.082Z,99.99
2023-02-21T00:48:16.058Z,99.99
2023-02-21T00:49:16.063Z,99.99
2023-02-21T00:50:16.051Z,99.99
2023-02-21T00:51:16.406Z,99.99
2023-02-21T00:52:16.025Z,99.99
2023-02-21T00:53:16.012Z,99.99
2023-02-21T00:54:15.988Z,99.99
2023-02-21T00:55:15.987Z,99.99
2023-02-21T00:56:15.959Z,99.99
2023-02-21T00:57:15.950Z,99.99
2023-02-21T00:58:15.947Z,99.99
2023-02-21T00:59:15.928Z,99.99
2023-02-21T01:00:15.922Z,99.99
2023-02-21T01:01:16.340Z,99.99
2023-02-21T01:02:15.884Z,99.99
2023-02-21T01:03:15.877Z,99.99
2023-02-21T01:04:15.899Z,99.99
2023-02-21T01:05:15.880Z,99.99
2023-02-21T01:06:15.914Z,99.99
2023-02-21T01:07:15.828Z,99.99
2023-02-21T01:08:15.834Z,99.99
2023-02-21T01:09:15.808Z,99.99
2023-02-21T01:10:15.784Z,99.99
2023-02-21T01:11:16.015Z,99.99
2023-02-21T01:12:15.800Z,99.99
2023-02-21T01:13:15.782Z,99.99
2023-02-21T01:14:15.736Z,99.99
2023-02-21T01:15:15.790Z,99.99
2023-02-21T01:16:15.788Z,99.99
2023-02-21T01:17:15.703Z,99.99
2023-02-21T01:18:15.687Z,99.99
2023-02-21T01:19:15.682Z,99.99
2023-02-21T01:20:15.687Z,99.99
2023-02-21T01:21:15.901Z,99.99
2023-02-21T01:22:15.689Z,99.99
2023-02-21T01:23:15.621Z,99.99
2023-02-21T01:24:15.631Z,99.99
2023-02-21T01:25:15.597Z,99.99
2023-02-21T01:26:15.598Z,99.99
2023-02-21T01:27:15.581Z,99.99
2023-02-21T01:28:15.581Z,99.99
2023-02-21T01:29:15.551Z,99.99
2023-02-21T01:30:15.581Z,99.99
2023-02-21T01:31:15.904Z,99.99
2023-02-21T01:32:15.592Z,99.99
2023-02-21T01:33:15.500Z,99.99
2023-02-21T01:34:15.500Z,99.99
2023-02-21T01:35:15.480Z,99.99
2023-02-21T01:36:15.482Z,99.99
2023-02-21T01:37:15.465Z,99.99
2023-02-21T01:38:15.441Z,99.99
2023-02-21T01:39:15.433Z,99.99
2023-02-21T01:40:15.430Z,99.99
2023-02-21T01:41:15.744Z,99.99
2023-02-21T01:42:15.388Z,99.99
2023-02-21T01:43:15.360Z,99.99
2023-02-21T01:44:15.366Z,99.99
2023-02-21T01:45:15.359Z,99.99
2023-02-21T01:46:15.398Z,99.99
2023-02-21T01:47:15.320Z,99.99
2023-02-21T01:48:15.295Z,99.99
2023-02-21T01:49:15.286Z,99.99
2023-02-21T01:50:15.288Z,99.99
2023-02-21T01:51:15.586Z,99.99
2023-02-21T01:52:15.261Z,99.99
2023-02-21T01:53:15.248Z,99.99
2023-02-21T01:54:15.229Z,99.99
2023-02-21T01:55:15.219Z,99.99
2023-02-21T01:56:15.215Z,99.99
2023-02-21T01:57:15.191Z,99.99
2023-02-21T01:58:15.176Z,99.99
2023-02-21T01:59:15.238Z,99.99
2023-02-21T02:00:15.164Z,99.99
2023-02-21T02:01:15.514Z,99.99
2023-02-21T02:02:15.141Z,99.99
2023-02-21T02:03:15.115Z,99.99
2023-02-21T02:04:15.159Z,99.99
2023-02-21T02:05:15.076Z,99.99
2023-02-21T02:06:15.089Z,99.99
2023-02-21T02:07:15.065Z,99.99
2023-02-21T02:08:15.057Z,99.99
2023-02-21T02:09:15.051Z,99.99
2023-02-21T02:10:15.018Z,99.99
2023-02-21T02:11:15.421Z,99.99
2023-02-21T02:12:15.016Z,99.99
2023-02-21T02:13:14.996Z,99.99
2023-02-21T02:14:14.980Z,99.99
2023-02-21T02:15:14.948Z,99.99
2023-02-21T02:16:15.008Z,99.99
2023-02-21T02:17:16.586Z,99.99
2023-02-21T02:18:14.919Z,99.99
2023-02-21T02:19:14.949Z,99.99
2023-02-21T02:20:14.887Z,99.99
2023-02-21T02:21:15.205Z,99.99
2023-02-21T02:22:14.884Z,99.99
2023-02-21T02:23:14.856Z,99.99
2023-02-21T02:24:14.856Z,99.99
2023-02-21T02:25:14.830Z,99.99
2023-02-21T02:26:14.840Z,99.99
2023-02-21T02:27:14.811Z,99.99
2023-02-21T02:28:14.815Z,99.99
2023-02-21T02:29:14.775Z,99.99
2023-02-21T02:30:21.979Z,99.99
2023-02-21T02:31:15.213Z,99.99
2023-02-21T02:32:14.793Z,99.99
2023-02-21T02:33:14.721Z,99.99
2023-02-21T02:34:14.738Z,99.99
2023-02-21T02:35:14.726Z,99.99
2023-02-21T02:36:14.702Z,99.99
2023-02-21T02:37:14.672Z,99.99
2023-02-21T02:38:14.674Z,99.99
2023-02-21T02:39:14.653Z,99.99
2023-02-21T02:40:14.641Z,99.99
2023-02-21T02:41:14.879Z,99.99
2023-02-21T02:42:14.634Z,99.99
2023-02-21T02:43:14.606Z,99.99
2023-02-21T02:44:14.592Z,99.99
2023-02-21T02:45:14.570Z,99.99
2023-02-21T02:46:14.601Z,99.99
2023-02-21T02:47:14.541Z,99.99
2023-02-21T02:48:14.556Z,99.99
2023-02-21T02:49:14.553Z,99.99
2023-02-21T02:50:14.529Z,99.99
2023-02-21T02:51:14.787Z,99.99
2023-02-21T02:52:14.498Z,99.99
2023-02-21T02:53:14.484Z,99.99
2023-02-21T02:54:14.449Z,99.99
2023-02-21T02:55:14.441Z,99.99
2023-02-21T02:56:14.438Z,99.99
2023-02-21T02:57:14.430Z,99.99
2023-02-21T02:58:14.400Z,99.99
2023-02-21T02:59:14.407Z,99.99
2023-02-21T03:00:14.401Z,99.99
2023-02-21T03:01:14.751Z,99.99
2023-02-21T03:02:14.363Z,99.99
2023-02-21T03:03:14.398Z,99.99
2023-02-21T03:04:14.326Z,99.95
2023-02-21T03:05:14.331Z,99.85
2023-02-21T03:06:14.298Z,99.75
2023-02-21T03:07:14.317Z,99.85
2023-02-21T03:08:14.278Z,99.75
2023-02-21T03:09:14.258Z,99.65
2023-02-21T03:10:14.266Z,99.65
2023-02-21T03:11:14.561Z,99.65
2023-02-21T03:12:14.228Z,99.54
2023-02-21T03:13:14.244Z,99.44
2023-02-21T03:14:14.205Z,99.54
2023-02-21T03:15:14.190Z,99.54
2023-02-21T03:16:14.271Z,99.54
2023-02-21T03:17:14.161Z,99.44
2023-02-21T03:18:14.150Z,99.44
2023-02-21T03:19:14.141Z,99.44
2023-02-21T03:20:14.132Z,99.54
2023-02-21T03:21:14.400Z,99.24
2023-02-21T03:22:14.110Z,99.24
2023-02-21T03:23:14.100Z,99.24
2023-02-21T03:24:14.081Z,99.24
2023-02-21T03:25:14.059Z,99.24
2023-02-21T03:26:14.063Z,99.24
2023-02-21T03:27:14.044Z,99.13
2023-02-21T03:28:14.047Z,99.13
2023-02-21T03:29:14.014Z,99.24
2023-02-21T03:30:14.060Z,99.24
2023-02-21T03:31:14.409Z,99.24
2023-02-21T03:32:14.005Z,99.24
2023-02-21T03:33:13.941Z,99.13
2023-02-21T03:34:13.971Z,99.13
2023-02-21T03:35:13.944Z,99.13
2023-02-21T03:36:13.934Z,99.13
2023-02-21T03:37:13.913Z,99.13
2023-02-21T03:38:13.896Z,98.88
2023-02-21T03:39:13.870Z,98.78
2023-02-21T03:40:13.937Z,98.68
2023-02-21T03:41:14.118Z,98.58
2023-02-21T03:42:13.839Z,98.58
2023-02-21T03:43:13.833Z,98.68
2023-02-21T03:44:13.825Z,98.78
2023-02-21T03:45:13.813Z,98.78
2023-02-21T03:46:13.821Z,98.88
2023-02-21T03:47:13.772Z,98.88
2023-02-21T03:48:17.676Z,98.88
2023-02-21T03:49:14.753Z,98.99
2023-02-21T03:50:13.731Z,98.88
2023-02-21T03:51:14.059Z,98.88
2023-02-21T03:52:13.732Z,98.78
2023-02-21T03:53:13.691Z,98.68
2023-02-21T03:54:13.681Z,98.58
2023-02-21T03:55:13.667Z,98.58
2023-02-21T03:56:13.671Z,98.58
2023-02-21T03:57:13.640Z,98.58
2023-02-21T03:58:13.656Z,98.68
2023-02-21T03:59:13.698Z,98.68
2023-02-21T04:00:13.651Z,98.78
2023-02-21T04:01:14.075Z,98.88
2023-02-21T04:02:13.618Z,99.09
2023-02-21T04:03:13.578Z,99.19
2023-02-21T04:04:13.580Z,99.40
2023-02-21T04:05:13.562Z,99.29
2023-02-21T04:06:13.560Z,99.29
2023-02-21T04:07:13.528Z,99.40
2023-02-21T04:08:13.511Z,99.50
2023-02-21T04:09:13.490Z,99.75
2023-02-21T04:10:13.501Z,99.85
2023-02-21T04:11:13.816Z,99.95
2023-02-21T04:12:13.465Z,99.99
2023-02-21T04:13:13.437Z,99.99
2023-02-21T04:14:13.441Z,99.99
2023-02-21T04:15:13.430Z,99.99
2023-02-21T04:16:13.449Z,99.99
2023-02-21T04:17:13.416Z,99.99
2023-02-21T04:18:13.386Z,99.95
2023-02-21T04:19:13.383Z,99.80
2023-02-21T04:20:13.365Z,99.80
2023-02-21T04:21:13.685Z,99.85
2023-02-21T04:22:13.350Z,99.85
2023-02-21T04:23:13.341Z,99.70
2023-02-21T04:24:13.319Z,99.75
2023-02-21T04:25:13.275Z,99.75
2023-02-21T04:26:13.291Z,99.75
2023-02-21T04:27:13.256Z,99.60
2023-02-21T04:28:13.266Z,99.75
2023-02-21T04:29:13.236Z,99.85
2023-02-21T04:30:13.390Z,99.75
2023-02-21T04:31:14.503Z,99.54
2023-02-21T04:32:15.040Z,99.29
2023-02-21T04:33:13.200Z,99.29
2023-02-21T04:34:13.197Z,99.19
2023-02-21T04:35:13.159Z,99.09
2023-02-21T04:36:13.171Z,99.19
2023-02-21T04:37:13.151Z,99.29
2023-02-21T04:38:13.129Z,99.40
2023-02-21T04:39:13.107Z,99.29
2023-02-21T04:40:13.090Z,98.99
2023-02-21T04:41:13.380Z,98.78
2023-02-21T04:42:13.086Z,98.68
2023-02-21T04:43:13.048Z,98.78
2023-02-21T04:44:13.058Z,98.99
2023-02-21T04:45:13.041Z,98.99
2023-02-21T04:46:13.034Z,99.09
2023-02-21T04:47:13.001Z,99.19
2023-02-21T04:48:13.002Z,99.40
2023-02-21T04:49:12.985Z,99.70
2023-02-21T04:50:12.992Z,99.95
2023-02-21T04:51:15.987Z,99.99
2023-02-21T04:52:12.928Z,99.99
2023-02-21T04:53:12.949Z,99.99
2023-02-21T04:54:14.107Z,99.99
2023-02-21T04:55:12.899Z,99.99
2023-02-21T04:56:13.018Z,99.99
2023-02-21T04:57:12.868Z,99.99
2023-02-21T04:58:12.879Z,99.99
2023-02-21T04:59:12.869Z,99.99
2023-02-21T05:00:12.849Z,99.99
2023-02-21T05:01:13.223Z,99.99
2023-02-21T05:02:12.828Z,99.99
2023-02-21T05:03:12.811Z,99.99
2023-02-21T05:04:12.847Z,99.99
2023-02-21T05:05:12.840Z,99.99
2023-02-21T05:06:12.763Z,99.99
2023-02-21T05:07:12.738Z,99.99
2023-02-21T05:08:12.742Z,99.99
2023-02-21T05:09:12.735Z,99.99
2023-02-21T05:10:12.743Z,99.99
2023-02-21T05:11:13.081Z,99.99
2023-02-21T05:12:12.695Z,99.99
2023-02-21T05:13:12.676Z,99.99
2023-02-21T05:14:12.662Z,99.99
2023-02-21T05:15:12.661Z,99.99
2023-02-21T05:16:12.665Z,99.99
2023-02-21T05:17:12.608Z,99.99
2023-02-21T05:18:12.600Z,99.99
2023-02-21T05:19:12.590Z,99.99
2023-02-21T05:20:12.581Z,99.99
2023-02-21T05:21:12.792Z,99.99
2023-02-21T05:22:12.577Z,99.99
2023-02-21T05:23:14.005Z,99.99
2023-02-21T05:24:12.518Z,99.99
2023-02-21T05:25:12.508Z,99.99
2023-02-21T05:26:12.489Z,99.99
2023-02-21T05:27:12.511Z,99.99
2023-02-21T05:28:12.486Z,99.99
2023-02-21T05:29:12.474Z,99.99
2023-02-21T05:30:12.538Z,99.99
2023-02-21T05:31:12.498Z,99.99
2023-02-21T05:32:12.464Z,99.99
2023-02-21T05:33:12.407Z,99.99
2023-02-21T05:34:12.401Z,99.99
2023-02-21T05:35:12.400Z,99.99
2023-02-21T05:36:12.387Z,99.99
2023-02-21T05:37:12.368Z,99.99
2023-02-21T05:38:12.342Z,99.99
2023-02-21T05:39:12.397Z,99.99
2023-02-21T05:40:12.336Z,99.99
2023-02-21T05:41:12.551Z,99.99
2023-02-21T05:42:12.291Z,99.99
2023-02-21T05:43:12.289Z,99.99
2023-02-21T05:44:12.273Z,99.99
2023-02-21T05:45:12.251Z,99.99
2023-02-21T05:46:12.257Z,99.99
2023-02-21T05:47:12.254Z,99.99
2023-02-21T05:48:12.222Z,99.99
2023-02-21T05:49:12.203Z,99.99
2023-02-21T05:50:12.199Z,99.99
2023-02-21T05:51:12.462Z,99.99
2023-02-21T05:52:12.173Z,99.99
2023-02-21T05:53:12.184Z,99.99
2023-02-21T05:54:12.171Z,99.99
2023-02-21T05:55:12.133Z,99.99
2023-02-21T05:56:12.123Z,99.99
2023-02-21T05:57:12.104Z,99.99
2023-02-21T05:58:12.091Z,99.99
2023-02-21T05:59:12.086Z,99.99
2023-02-21T06:00:12.057Z,99.99
2023-02-21T06:01:12.141Z,99.99
2023-02-21T06:02:12.072Z,99.99
2023-02-21T06:03:12.080Z,99.99
2023-02-21T06:04:12.020Z,99.99
2023-02-21T06:05:12.010Z,99.99
2023-02-21T06:06:11.977Z,99.99
2023-02-21T06:07:11.964Z,99.99
2023-02-21T06:08:13.925Z,99.99
2023-02-21T06:09:11.973Z,99.99
2023-02-21T06:10:11.940Z,99.99
2023-02-21T06:11:12.009Z,99.99
2023-02-21T06:12:11.899Z,99.99
2023-02-21T06:13:11.914Z,99.99
2023-02-21T06:14:11.888Z,99.99
2023-02-21T06:15:11.865Z,99.99
2023-02-21T06:16:11.921Z,99.99
2023-02-21T06:17:11.835Z,99.99
2023-02-21T06:18:11.814Z,99.99
2023-02-21T06:19:11.825Z,99.99
2023-02-21T06:20:11.796Z,99.99
2023-02-21T06:21:11.820Z,99.99
2023-02-21T06:22:11.794Z,99.99
2023-02-21T06:23:11.820Z,99.99
2023-02-21T06:24:11.765Z,99.99
2023-02-21T06:25:11.796Z,99.99
2023-02-21T06:26:11.715Z,99.99
2023-02-21T06:27:11.740Z,99.99
2023-02-21T06:28:11.706Z,99.99
2023-02-21T06:29:11.698Z,99.99
2023-02-21T06:30:11.689Z,99.99
2023-02-21T06:31:11.773Z,99.99
2023-02-21T06:32:11.688Z,99.99
2023-02-21T06:33:11.640Z,99.99
2023-02-21T06:34:11.642Z,99.99
2023-02-21T06:35:11.623Z,99.99
2023-02-21T06:36:11.594Z,99.99
2023-02-21T06:37:11.600Z,99.99
2023-02-21T06:38:11.589Z,99.99
2023-02-21T06:39:11.573Z,99.99
2023-02-21T06:40:11.544Z,99.99
2023-02-21T06:41:11.531Z,99.99
2023-02-21T06:42:11.530Z,99.99
2023-02-21T06:43:11.682Z,99.99
2023-02-21T06:44:11.523Z,99.99
2023-02-21T06:45:11.507Z,99.99
2023-02-21T06:46:11.494Z,99.99
2023-02-21T06:47:11.485Z,99.99
2023-02-21T06:48:11.457Z,99.99
2023-02-21T06:49:11.468Z,99.99
2023-02-21T06:50:11.449Z,99.99
2023-02-21T06:51:11.413Z,99.99
2023-02-21T06:52:11.397Z,99.99
2023-02-21T06:53:11.397Z,99.99
2023-02-21T06:54:11.373Z,99.99
2023-02-21T06:55:11.383Z,99.99
2023-02-21T06:56:11.346Z,99.99
2023-02-21T06:57:11.335Z,99.99
2023-02-21T06:58:11.330Z,99.99
2023-02-21T06:59:11.318Z,99.99
2023-02-21T07:00:11.338Z,99.99
2023-02-21T07:01:11.348Z,99.99
2023-02-21T07:02:11.277Z,99.99
2023-02-21T07:03:11.263Z,99.95
2023-02-21T07:04:11.264Z,99.85
2023-02-21T07:05:11.256Z,99.99
2023-02-21T07:06:11.246Z,99.99
2023-02-21T07:07:11.227Z,99.95
2023-02-21T07:08:11.193Z,99.65
2023-02-21T07:09:11.186Z,99.54
2023-02-21T07:10:11.166Z,99.34
2023-02-21T07:11:11.166Z,98.93
2023-02-21T07:12:11.156Z,98.62
2023-02-21T07:13:11.137Z,98.52
2023-02-21T07:14:11.111Z,98.11
2023-02-21T07:15:11.103Z,98.00
2023-02-21T07:16:11.134Z,98.11
2023-02-21T07:17:11.099Z,98.52
2023-02-21T07:18:11.084Z,98.42
2023-02-21T07:19:11.053Z,98.52
2023-02-21T07:20:11.046Z,98.62
2023-02-21T07:21:11.045Z,98.62
2023-02-21T07:22:11.029Z,98.52
2023-02-21T07:23:11.008Z,98.32
2023-02-21T07:24:10.985Z,98.42
2023-02-21T07:25:11.010Z,98.62
2023-02-21T07:26:10.986Z,98.72
2023-02-21T07:27:10.939Z,98.67
2023-02-21T07:28:10.936Z,98.32
2023-02-21T07:29:10.945Z,98.32
2023-02-21T07:30:10.913Z,98.32
2023-02-21T07:31:10.951Z,98.52
2023-02-21T07:32:10.895Z,98.11
2023-02-21T07:33:10.892Z,98.11
2023-02-21T07:34:10.866Z,98.32
2023-02-21T07:35:10.841Z,98.52
2023-02-21T07:36:10.836Z,98.11
2023-02-21T07:37:10.822Z,98.11
2023-02-21T07:38:10.826Z,98.11
2023-02-21T07:39:10.810Z,98.11
2023-02-21T07:40:10.788Z,98.00
2023-02-21T07:41:10.769Z,97.49
2023-02-21T07:42:12.599Z,96.88
2023-02-21T07:43:10.742Z,96.67
2023-02-21T07:44:10.747Z,96.67
2023-02-21T07:45:10.743Z,96.73
2023-02-21T07:46:10.696Z,96.94
2023-02-21T07:47:10.708Z,96.83
2023-02-21T07:48:10.673Z,96.53
2023-02-21T07:49:10.680Z,96.42
2023-02-21T07:50:10.643Z,96.53
2023-02-21T07:51:10.649Z,96.32
2023-02-21T07:52:10.636Z,95.97
2023-02-21T07:53:11.318Z,95.87
2023-02-21T07:54:10.604Z,95.87
2023-02-21T07:55:10.604Z,96.17
2023-02-21T07:56:10.583Z,96.17
2023-02-21T07:57:10.575Z,96.38
2023-02-21T07:58:10.564Z,96.38
2023-02-21T07:59:10.547Z,96.28
2023-02-21T08:00:10.527Z,95.97
2023-02-21T08:01:10.515Z,96.38
2023-02-21T08:02:10.507Z,96.28
2023-02-21T08:03:10.490Z,96.17
2023-02-21T08:04:10.486Z,96.07
2023-02-21T08:05:10.557Z,95.97
2023-02-21T08:06:10.459Z,95.46
2023-02-21T08:07:10.453Z,94.64
2023-02-21T08:08:10.450Z,93.92
2023-02-21T08:09:10.448Z,93.82
2023-02-21T08:10:10.383Z,94.12
2023-02-21T08:11:10.396Z,94.23
2023-02-21T08:12:10.427Z,94.33
2023-02-21T08:13:10.356Z,94.43
2023-02-21T08:14:10.343Z,94.64
2023-02-21T08:15:10.323Z,94.64
2023-02-21T08:16:10.337Z,94.23
2023-02-21T08:17:10.399Z,94.43
2023-02-21T08:18:10.279Z,94.23
2023-02-21T08:19:10.280Z,93.67
2023-02-21T08:20:10.249Z,93.57
2023-02-21T08:21:10.241Z,93.26
2023-02-21T08:22:10.253Z,93.57
2023-02-21T08:23:10.220Z,93.47
2023-02-21T08:24:10.199Z,93.16
2023-02-21T08:25:10.193Z,93.37
2023-02-21T08:26:10.183Z,92.75
2023-02-21T08:27:10.186Z,92.24
2023-02-21T08:28:10.150Z,92.75
2023-02-21T08:29:10.154Z,93.12
2023-02-21T08:30:10.184Z,93.06
2023-02-21T08:31:17.349Z,92.75
2023-02-21T08:32:10.145Z,93.16
2023-02-21T08:33:10.109Z,93.16
2023-02-21T08:34:10.088Z,92.75
2023-02-21T08:35:10.070Z,92.44
2023-02-21T08:36:10.052Z,91.93
2023-02-21T08:37:10.050Z,92.44
2023-02-21T08:38:10.023Z,92.65
2023-02-21T08:39:10.009Z,92.85
2023-02-21T08:40:09.999Z,92.14
2023-02-21T08:41:09.991Z,91.73
2023-02-21T08:42:09.973Z,91.73
2023-02-21T08:43:09.975Z,91.83
2023-02-21T08:44:09.957Z,92.03
2023-02-21T08:45:09.930Z,91.73
2023-02-21T08:46:09.914Z,91.42
2023-02-21T08:47:09.915Z,91.31
2023-02-21T08:48:09.913Z,91.52
2023-02-21T08:49:09.878Z,91.52
2023-02-21T08:50:09.861Z,91.22
2023-02-21T08:51:09.868Z,91.01
2023-02-21T08:52:09.845Z,90.91
2023-02-21T08:53:09.865Z,91.01
2023-02-21T08:54:09.834Z,90.60
2023-02-21T08:55:09.800Z,89.89
2023-02-21T08:56:09.832Z,89.58
2023-02-21T08:57:09.783Z,89.47
2023-02-21T08:58:09.764Z,89.03
2023-02-21T08:59:09.779Z,89.12
2023-02-21T09:00:09.735Z,88.41
2023-02-21T09:01:09.778Z,88.41
2023-02-21T09:02:09.797Z,88.41
2023-02-21T09:03:09.748Z,88.20
2023-02-21T09:04:09.687Z,87.79
2023-02-21T09:05:09.719Z,86.77
2023-02-21T09:06:09.703Z,86.16
2023-02-21T09:07:09.677Z,85.96
2023-02-21T09:08:09.633Z,85.55
2023-02-21T09:09:09.636Z,85.03
2023-02-21T09:10:09.628Z,84.52
2023-02-21T09:11:09.596Z,83.91
2023-02-21T09:12:09.605Z,84.01
2023-02-21T09:13:09.586Z,84.22
2023-02-21T09:14:09.564Z,84.11
2023-02-21T09:15:09.553Z,84.42
2023-02-21T09:16:09.592Z,84.31
2023-02-21T09:17:09.529Z,84.42
2023-02-21T09:18:09.599Z,84.52
2023-02-21T09:19:09.518Z,84.93
2023-02-21T09:20:09.517Z,84.63
2023-02-21T09:21:09.508Z,84.72
2023-02-21T09:22:09.523Z,84.83
2023-02-21T09:23:09.459Z,84.66
2023-02-21T09:24:09.449Z,85.28
2023-02-21T09:25:09.446Z,85.48
2023-02-21T09:26:09.421Z,85.79
2023-02-21T09:27:09.411Z,85.75
2023-02-21T09:28:09.390Z,85.85
2023-02-21T09:29:09.401Z,86.05
2023-02-21T09:30:09.436Z,86.05
2023-02-21T09:31:09.359Z,86.26
2023-02-21T09:32:09.427Z,86.16
2023-02-21T09:33:09.328Z,85.64
2023-02-21T09:34:09.318Z,86.05
2023-02-21T09:35:09.321Z,86.46
2023-02-21T09:36:09.287Z,86.46
2023-02-21T09:37:09.272Z,85.44
2023-02-21T09:38:09.266Z,85.64
2023-02-21T09:39:09.260Z,85.96
2023-02-21T09:40:09.253Z,86.05
2023-02-21T09:41:09.216Z,85.75
2023-02-21T09:42:09.228Z,86.26
2023-02-21T09:43:09.223Z,86.83
2023-02-21T09:44:09.185Z,85.34
2023-02-21T09:45:09.206Z,85.24
2023-02-21T09:46:09.276Z,85.55
2023-02-21T09:47:09.139Z,85.75
2023-02-21T09:48:09.124Z,85.85
2023-02-21T09:49:09.124Z,85.96
2023-02-21T09:50:09.119Z,85.44
2023-02-21T09:51:09.110Z,85.85
2023-02-21T09:52:09.097Z,85.44
2023-02-21T09:53:09.049Z,85.34
2023-02-21T09:54:09.056Z,85.34
2023-02-21T09:55:09.052Z,85.20
2023-02-21T09:56:09.026Z,84.52
2023-02-21T09:57:09.006Z,84.22
2023-02-21T09:58:09.002Z,84.07
2023-02-21T09:59:09.000Z,84.07
2023-02-21T10:00:08.989Z,83.76
2023-02-21T10:01:08.993Z,83.25
2023-02-21T10:02:08.962Z,83.05
2023-02-21T10:03:08.941Z,82.03
2023-02-21T10:04:08.959Z,82.03
2023-02-21T10:05:08.909Z,81.76
2023-02-21T10:06:08.910Z,81.72
2023-02-21T10:07:08.901Z,80.80
2023-02-21T10:08:08.866Z,80.60
2023-02-21T10:09:08.846Z,78.86
2023-02-21T10:10:08.885Z,79.27
2023-02-21T10:11:08.826Z,78.86
2023-02-21T10:12:08.816Z,78.65
2023-02-21T10:13:08.808Z,78.55
2023-02-21T10:14:08.819Z,78.61
2023-02-21T10:15:08.807Z,77.80
2023-02-21T10:16:08.799Z,77.01
2023-02-21T10:17:08.755Z,76.98
2023-02-21T10:18:08.752Z,75.38
2023-02-21T10:19:08.717Z,74.26
2023-02-21T10:20:08.736Z,74.35
2023-02-21T10:21:08.705Z,73.85
2023-02-21T10:22:08.711Z,73.64
2023-02-21T10:23:08.687Z,73.44
2023-02-21T10:24:08.676Z,73.23
2023-02-21T10:25:08.648Z,72.82
2023-02-21T10:26:08.658Z,72.41
2023-02-21T10:27:08.649Z,72.21
2023-02-21T10:28:08.634Z,72.00
2023-02-21T10:29:08.608Z,71.80
2023-02-21T10:30:08.640Z,72.52
2023-02-21T10:31:08.619Z,72.41
2023-02-21T10:32:08.632Z,72.31
2023-02-21T10:33:08.572Z,72.41
2023-02-21T10:34:08.548Z,72.31
2023-02-21T10:35:08.516Z,72.24
2023-02-21T10:36:08.508Z,72.55
2023-02-21T10:37:08.547Z,72.75
2023-02-21T10:38:08.494Z,72.96
2023-02-21T10:39:08.491Z,73.03
2023-02-21T10:40:09.331Z,73.06
2023-02-21T10:41:08.444Z,73.06
2023-02-21T10:42:08.439Z,73.16
2023-02-21T10:43:08.428Z,73.47
2023-02-21T10:44:08.429Z,73.36
2023-02-21T10:45:08.421Z,73.44
2023-02-21T10:46:08.415Z,73.74
2023-02-21T10:47:08.391Z,73.23
2023-02-21T10:48:08.363Z,73.33
2023-02-21T10:49:08.351Z,73.44
2023-02-21T10:50:08.326Z,73.27
2023-02-21T10:51:08.324Z,73.78
2023-02-21T10:52:08.318Z,73.47
2023-02-21T10:53:08.386Z,73.57
2023-02-21T10:54:08.294Z,73.64
2023-02-21T10:55:08.268Z,73.64
2023-02-21T10:56:08.284Z,73.54
2023-02-21T10:57:08.257Z,73.74
2023-02-21T10:58:08.227Z,73.74
2023-02-21T10:59:08.217Z,73.44
2023-02-21T11:00:08.247Z,73.74
2023-02-21T11:01:08.256Z,73.74
2023-02-21T11:02:08.203Z,73.03
2023-02-21T11:03:08.160Z,73.44
2023-02-21T11:04:08.164Z,73.33
2023-02-21T11:05:08.152Z,73.13
2023-02-21T11:06:08.153Z,73.61
2023-02-21T11:07:08.150Z,73.10
2023-02-21T11:08:08.114Z,73.10
2023-02-21T11:09:08.124Z,73.33
2023-02-21T11:10:08.081Z,73.44
2023-02-21T11:11:08.101Z,73.85
2023-02-21T11:12:08.062Z,73.74
2023-02-21T11:13:08.152Z,74.35
2023-02-21T11:14:08.036Z,74.26
2023-02-21T11:15:08.010Z,74.15
2023-02-21T11:16:08.038Z,74.26
2023-02-21T11:17:07.996Z,74.05
2023-02-21T11:18:08.003Z,74.15
2023-02-21T11:19:07.969Z,74.46
2023-02-21T11:20:07.998Z,73.68
2023-02-21T11:21:07.929Z,73.98
2023-02-21T11:22:07.929Z,74.29
2023-02-21T11:23:07.913Z,74.80
2023-02-21T11:24:07.930Z,74.60
2023-02-21T11:25:07.909Z,74.26
2023-02-21T11:26:07.883Z,74.15
2023-02-21T11:27:07.851Z,74.05
2023-02-21T11:28:07.889Z,73.78
2023-02-21T11:29:07.833Z,73.64
2023-02-21T11:30:07.861Z,73.64
2023-02-21T11:31:07.876Z,72.82
2023-02-21T11:32:07.833Z,73.13
2023-02-21T11:33:07.819Z,73.03
2023-02-21T11:34:07.796Z,73.16
2023-02-21T11:35:07.753Z,73.33
2023-02-21T11:36:07.759Z,73.44
2023-02-21T11:37:07.723Z,72.92
2023-02-21T11:38:07.738Z,73.03
2023-02-21T11:39:07.726Z,72.72
2023-02-21T11:40:07.720Z,72.79
2023-02-21T11:41:07.684Z,72.28
2023-02-21T11:42:07.687Z,72.17
2023-02-21T11:43:07.670Z,71.97
2023-02-21T11:44:07.665Z,72.38
2023-02-21T11:45:07.640Z,71.87
2023-02-21T11:46:07.679Z,71.97
2023-02-21T11:47:07.620Z,71.36
2023-02-21T11:48:07.607Z,71.56
2023-02-21T11:49:08.572Z,71.05
2023-02-21T11:50:07.602Z,70.84
2023-02-21T11:51:07.598Z,70.92
2023-02-21T11:52:07.561Z,71.01
2023-02-21T11:53:07.526Z,70.81
2023-02-21T11:54:07.552Z,70.30
2023-02-21T11:55:07.520Z,70.30
2023-02-21T11:56:07.516Z,70.61
2023-02-21T11:57:07.490Z,70.71
2023-02-21T11:58:07.477Z,70.20
2023-02-21T11:59:07.444Z,70.51
2023-02-21T12:00:07.490Z,70.10
2023-02-21T12:01:07.469Z,70.00
2023-02-21T12:02:07.438Z,70.30
2023-02-21T12:03:07.418Z,70.00
2023-02-21T12:04:07.405Z,70.13
2023-02-21T12:05:07.374Z,70.34
2023-02-21T12:06:07.449Z,70.10
2023-02-21T12:07:07.344Z,69.72
2023-02-21T12:08:07.346Z,70.03
2023-02-21T12:09:07.326Z,70.20
2023-02-21T12:10:07.334Z,70.61
2023-02-21T12:11:07.294Z,69.38
2023-02-21T12:12:07.297Z,69.15
2023-02-21T12:13:07.277Z,69.24
2023-02-21T12:14:07.299Z,68.23
2023-02-21T12:15:07.286Z,68.12
2023-02-21T12:16:07.295Z,68.33
2023-02-21T12:17:07.251Z,68.19
2023-02-21T12:18:07.203Z,67.07
2023-02-21T12:19:07.201Z,67.07
2023-02-21T12:20:07.204Z,67.18
2023-02-21T12:21:07.189Z,67.48
2023-02-21T12:22:07.166Z,67.79
2023-02-21T12:23:07.137Z,67.51
2023-02-21T12:24:07.134Z,67.61
2023-02-21T12:25:07.125Z,67.71
2023-02-21T12:26:07.093Z,66.80
2023-02-21T12:27:07.090Z,67.10
2023-02-21T12:28:07.073Z,67.58
2023-02-21T12:29:07.085Z,67.07
2023-02-21T12:30:07.116Z,66.90
2023-02-21T12:31:07.047Z,66.90
2023-02-21T12:32:07.068Z,67.00
2023-02-21T12:33:07.020Z,67.41
2023-02-21T12:34:07.000Z,67.10
2023-02-21T12:35:07.016Z,67.79
2023-02-21T12:36:06.985Z,66.83
2023-02-21T12:37:06.964Z,66.42
2023-02-21T12:38:06.972Z,66.63
2023-02-21T12:39:06.930Z,66.02
2023-02-21T12:40:06.924Z,66.15
2023-02-21T12:41:06.934Z,66.33
2023-02-21T12:42:06.970Z,66.25
2023-02-21T12:43:06.884Z,66.36
2023-02-21T12:44:06.880Z,66.66
2023-02-21T12:45:06.859Z,66.86
2023-02-21T12:46:06.946Z,66.86
2023-02-21T12:47:06.837Z,66.08
2023-02-21T12:48:06.822Z,66.69
2023-02-21T12:49:06.825Z,66.69
2023-02-21T12:50:06.811Z,66.69
2023-02-21T12:51:06.790Z,66.01
2023-02-21T12:52:06.789Z,66.11